Time;durP1;ratioP1;P1;durP2;ratioP2;P2;SDS_P1;SDS_P2;PMS_P1;PMS_P2;Temp;Humidity;BMP_temperature;BMP_pressure;BME280_temperature;BME280_humidity;BME280_pressure;Samples;Min_cycle;Max_cycle;Signal;HPM_P1;HPM_P2
2023/06/01 00:00:14;;;;;;;;;;;;;;;;;;1038540;28;1965;-56
2023/06/01 00:01:04;;;;;;;;;;;;;;;;;;1041161;28;4111;-56
2023/06/01 00:01:47;;;;;;;;;;;;;;;;;;1041768;28;3990;-55
2023/06/01 00:02:17;;;;;;;;;;;;;;;;;;1038316;28;1775;-48
2023/06/01 00:02:49;;;;;;;;;;;;;;;;;;1040109;28;4398;-55
2023/06/01 00:03:19;;;;;;;;;;;;;;;;;;1042838;28;1879;-57
2023/06/01 00:03:50;;;;;;;;;;;;;;;;;;1042278;28;4039;-46
2023/06/01 00:04:21;;;;;;;;;;;;;;;;;;1042654;28;2829;-56
2023/06/01 00:04:52;;;;;;;;;;;;;;;;;;1040535;28;3932;-53
2023/06/01 00:05:22;;;;;;;;;;;;;;;;;;1037336;28;1828;-54
2023/06/01 00:05:52;;;;;;;;;;;;;;;;;;1038973;28;3937;-51
2023/06/01 00:06:22;;;;;;;;;;;;;;;;;;1037456;28;2805;-51
2023/06/01 00:06:53;;;;;;;;;;;;;;;;;;1040322;28;4243;-51
2023/06/01 00:07:23;;;;;;;;;;;;;;;;;;1042417;28;1650;-53
2023/06/01 00:07:54;;;;;;;;;;;;;;;;;;1039795;28;3985;-51
2023/06/01 00:08:24;;;;;;;;;;;;;;;;;;1039147;28;1536;-54
2023/06/01 00:08:55;;;;;;;;;;;;;;;;;;1037033;28;3798;-50
2023/06/01 00:09:25;;;;;;;;;;;;;;;;;;1039355;28;3397;-49
2023/06/01 00:09:55;;;;;;;;;;;;;;;;;;1041988;28;3997;-56
2023/06/01 00:10:25;;;;;;;;;;;;;;;;;;1041887;28;2978;-54
2023/06/01 00:10:56;;;;;;;;;;;;;;;;;;1041879;28;3958;-58
2023/06/01 00:11:26;;;;;;;;;;;;;;;;;;1042782;28;2688;-50
2023/06/01 00:11:56;;;;;;;;;;;;;;;;;;1038367;28;4324;-50
2023/06/01 00:12:27;;;;;;;;;;;;;;;;;;1038841;28;2953;-52
2023/06/01 00:12:57;;;;;;;;;;;;;;;;;;1038732;28;3948;-54
2023/06/01 00:13:27;;;;;;;;;;;;;;;;;;1038735;28;1690;-53
2023/06/01 00:13:58;;;;;;;;;;;;;;;;;;1040127;28;3865;-50
2023/06/01 00:14:28;;;;;;;;;;;;;;;;;;1042940;28;1775;-50
2023/06/01 00:14:58;;;;;;;;;;;;;;;;;;1040388;28;3905;-56
2023/06/01 00:15:28;;;;;;;;;;;;;;;;;;1036365;28;2914;-54
2023/06/01 00:15:59;;;;;;;;;;;;;;;;;;1039095;28;4027;-50
2023/06/01 00:16:30;;;;;;;;;;;;;;;;;;1038188;28;2806;-53
2023/06/01 00:17:01;;;;;;;;;;;;;;;;;;1038815;28;4214;-49
2023/06/01 00:17:32;;;;;;;;;;;;;;;;;;1039381;28;1616;-52
2023/06/01 00:18:02;;;;;;;;;;;;;;;;;;1040212;28;3896;-49
2023/06/01 00:18:32;;;;;;;;;;;;;;;;;;1043319;28;1618;-52
2023/06/01 00:19:03;;;;;;;;;;;;;;;;;;1038927;28;3995;-49
2023/06/01 00:19:34;;;;;;;;;;;;;;;;;;1039458;28;1810;-57
2023/06/01 00:20:08;;;;;;;;;;;;;;;;;;1038162;28;3974;-56
2023/06/01 00:20:39;;;;;;;;;;;;;;;;;;1037750;28;3860;-51
2023/06/01 00:21:09;;;;;;;;;;;;;;;;;;1036427;28;2949;-48
2023/06/01 00:21:41;;;;;;;;;;;;;;;;;;1038737;28;4114;-57
2023/06/01 00:22:11;;;;;;;;;;;;;;;;;;1037895;28;1878;-54
2023/06/01 00:22:42;;;;;;;;;;;;;;;;;;1038386;28;4103;-53
2023/06/01 00:23:15;;;;;;;;;;;;;;;;;;1038489;28;1389;-56
2023/06/01 00:23:45;;;;;;;;;;;;;;;;;;1039779;28;3936;-48
2023/06/01 00:24:16;;;;;;;;;;;;;;;;;;1042117;28;2944;-52
2023/06/01 00:24:46;;;;;;;;;;;;;;;;;;1042321;28;4088;-53
2023/06/01 00:25:16;;;;;;;;;;;;;;;;;;1038727;28;1832;-57
2023/06/01 00:25:47;;;;;;;;;;;;;;;;;;1039002;28;3868;-59
2023/06/01 00:26:17;;;;;;;;;;;;;;;;;;1037915;28;2009;-54
2023/06/01 00:26:47;;;;;;;;;;;;;;;;;;1038281;28;3989;-51
2023/06/01 00:27:17;;;;;;;;;;;;;;;;;;1039311;28;1761;-53
2023/06/01 00:27:48;;;;;;;;;;;;;;;;;;1037847;28;3795;-55
2023/06/01 00:28:18;;;;;;;;;;;;;;;;;;1039001;28;1998;-51
2023/06/01 00:28:48;;;;;;;;;;;;;;;;;;1037921;28;3888;-55
2023/06/01 00:29:19;;;;;;;;;;;;;;;;;;1039123;28;1714;-51
2023/06/01 00:29:49;;;;;;;;;;;;;;;;;;1037657;28;4438;-50
2023/06/01 00:30:19;;;;;;;;;;;;;;;;;;1039426;28;2242;-51
2023/06/01 00:30:51;;;;;;;;;;;;;;;;;;1039157;28;3951;-50
2023/06/01 00:31:22;;;;;;;;;;;;;;;;;;1042676;28;2936;-53
2023/06/01 00:31:52;;;;;;;;;;;;;;;;;;1039415;28;3939;-55
2023/06/01 00:32:22;;;;;;;;;;;;;;;;;;1038712;28;1820;-50
2023/06/01 00:32:52;;;;;;;;;;;;;;;;;;1041958;28;4019;-49
2023/06/01 00:33:23;;;;;;;;;;;;;;;;;;1042176;28;1872;-53
2023/06/01 00:33:53;;;;;;;;;;;;;;;;;;1040899;28;4078;-56
2023/06/01 00:34:23;;;;;;;;;;;;;;;;;;1037438;28;3068;-56
2023/06/01 00:34:53;;;;;;;;;;;;;;;;;;1039198;28;4053;-52
2023/06/01 00:35:24;;;;;;;;;;;;;;;;;;1038588;28;1845;-57
2023/06/01 00:35:54;;;;;;;;;;;;;;;;;;1038655;28;3885;-46
2023/06/01 00:36:24;;;;;;;;;;;;;;;;;;1038962;28;2885;-51
2023/06/01 00:36:55;;;;;;;;;;;;;;;;;;1038377;28;3797;-55
2023/06/01 00:37:25;;;;;;;;;;;;;;;;;;1039623;28;1765;-56
2023/06/01 00:37:56;;;;;;;;;;;;;;;;;;1040520;28;4028;-52
2023/06/01 00:38:27;;;;;;;;;;;;;;;;;;1042162;28;3165;-56
2023/06/01 00:39:01;;;;;;;;;;;;;;;;;;1041839;28;4078;-55
2023/06/01 00:39:32;;;;;;;;;;;;;;;;;;1043585;28;1675;-54
2023/06/01 00:40:02;;;;;;;;;;;;;;;;;;1038337;28;3792;-53
2023/06/01 00:40:33;;;;;;;;;;;;;;;;;;1039899;28;3000;-50
2023/06/01 00:41:03;;;;;;;;;;;;;;;;;;1041621;28;3992;-55
2023/06/01 00:41:34;;;;;;;;;;;;;;;;;;1043371;28;1420;-52
2023/06/01 00:42:05;;;;;;;;;;;;;;;;;;1038780;28;3821;-53
2023/06/01 00:42:35;;;;;;;;;;;;;;;;;;1038291;28;1537;-52
2023/06/01 00:43:06;;;;;;;;;;;;;;;;;;1038016;28;3921;-57
2023/06/01 00:43:36;;;;;;;;;;;;;;;;;;1038195;28;3516;-52
2023/06/01 00:44:06;;;;;;;;;;;;;;;;;;1042159;28;4102;-50
2023/06/01 00:44:36;;;;;;;;;;;;;;;;;;1042684;28;1874;-55
2023/06/01 00:45:07;;;;;;;;;;;;;;;;;;1042879;28;4120;-51
2023/06/01 00:45:40;;;;;;;;;;;;;;;;;;1042282;28;1876;-51
2023/06/01 00:46:11;;;;;;;;;;;;;;;;;;1042921;28;3930;-52
2023/06/01 00:46:42;;;;;;;;;;;;;;;;;;1041912;28;3940;-47
2023/06/01 00:47:12;;;;;;;;;;;;;;;;;;1039296;28;1673;-57
2023/06/01 00:47:43;;;;;;;;;;;;;;;;;;1038914;28;4039;-55
2023/06/01 00:48:14;;;;;;;;;;;;;;;;;;1043958;28;3100;-54
2023/06/01 00:48:44;;;;;;;;;;;;;;;;;;1041560;28;3769;-52
2023/06/01 00:49:15;;;;;;;;;;;;;;;;;;1038032;28;2602;-54
2023/06/01 00:49:45;;;;;;;;;;;;;;;;;;1037945;28;4279;-51
2023/06/01 00:50:16;;;;;;;;;;;;;;;;;;1039323;28;2134;-51
2023/06/01 00:50:46;;;;;;;;;;;;;;;;;;1038515;28;4031;-51
2023/06/01 00:51:16;;;;;;;;;;;;;;;;;;1039429;28;1581;-53
2023/06/01 00:51:47;;;;;;;;;;;;;;;;;;1037985;28;3949;-52
2023/06/01 00:52:17;;;;;;;;;;;;;;;;;;1040059;28;3094;-52
2023/06/01 00:52:51;;;;;;;;;;;;;;;;;;1038148;28;3938;-51
2023/06/01 00:53:22;;;;;;;;;;;;;;;;;;1039125;28;1700;-51
2023/06/01 00:53:52;;;;;;;;;;;;;;;;;;1038133;28;4253;-49
2023/06/01 00:54:22;;;;;;;;;;;;;;;;;;1039124;28;1411;-46
2023/06/01 00:54:53;;;;;;;;;;;;;;;;;;1037467;28;3857;-53
2023/06/01 00:55:23;;;;;;;;;;;;;;;;;;1039353;28;3132;-52
2023/06/01 00:55:53;;;;;;;;;;;;;;;;;;1038521;28;3959;-50
2023/06/01 00:56:23;;;;;;;;;;;;;;;;;;1037964;28;1915;-56
2023/06/01 00:56:54;;;;;;;;;;;;;;;;;;1041119;28;3877;-54
2023/06/01 00:57:26;;;;;;;;;;;;;;;;;;1042651;28;1798;-51
2023/06/01 00:57:57;;;;;;;;;;;;;;;;;;1042932;28;4387;-50
2023/06/01 00:58:27;;;;;;;;;;;;;;;;;;1042798;28;1900;-52
2023/06/01 00:58:57;;;;;;;;;;;;;;;;;;1040433;28;4027;-53
2023/06/01 00:59:28;;;;;;;;;;;;;;;;;;1038558;28;1703;-53
2023/06/01 00:59:58;;;;;;;;;;;;;;;;;;1040709;28;4113;-52
2023/06/01 01:00:28;;;;;;;;;;;;;;;;;;1042753;28;1689;-54
2023/06/01 01:00:59;;;;;;;;;;;;;;;;;;1039692;28;3951;-49
2023/06/01 01:01:29;;;;;;;;;;;;;;;;;;1038244;28;1708;-55
2023/06/01 01:02:00;;;;;;;;;;;;;;;;;;1045381;28;3743;-48
2023/06/01 01:02:31;;;;;;;;;;;;;;;;;;1043330;28;1754;-56
2023/06/01 01:03:08;;;;;;;;;;;;;;;;;;1041363;28;3795;-55
2023/06/01 01:03:38;;;;;;;;;;;;;;;;;;1043599;28;1824;-49
2023/06/01 01:04:10;;;;;;;;;;;;;;;;;;1046474;28;3669;-57
2023/06/01 01:04:40;;;;;;;;;;;;;;;;;;1045691;28;4033;-52
2023/06/01 01:05:11;;;;;;;;;;;;;;;;;;1043140;28;1689;-56
2023/06/01 01:05:41;;;;;;;;;;;;;;;;;;1042549;28;4048;-53
2023/06/01 01:06:17;;;;;;;;;;;;;;;;;;1042706;28;2355;-48
2023/06/01 01:06:50;;;;;;;;;;;;;;;;;;1041967;28;3991;-48
2023/06/01 01:07:32;;;;;;;;;;;;;;;;;;1037460;28;2459;-59
2023/06/01 01:08:06;;;;;;;;;;;;;;;;;;1038150;28;3951;-56
2023/06/01 01:08:55;;;;;;;;;;;;;;;;;;1039420;28;1755;-45
2023/06/01 01:10:00;;;;;;;;;;;;;;;;;;1037028;28;3627;-51
2023/06/01 01:10:33;;;;;;;;;;;;;;;;;;1023425;28;3801;-57
2023/06/01 01:11:07;;;;;;;;;;;;;;;;;;1027257;28;3970;-51
2023/06/01 01:11:38;;;;;;;;;;;;;;;;;;1025726;28;1797;-54
2023/06/01 01:12:21;;;;;;;;;;;;;;;;;;1029716;28;3930;-54
2023/06/01 01:13:02;;;;;;;;;;;;;;;;;;1025156;28;4229;-51
2023/06/01 01:13:33;;;;;;;;;;;;;;;;;;1038231;28;2910;-46
2023/06/01 01:14:23;;;;;;;;;;;;;;;;;;1041535;28;3899;-46
2023/06/01 01:15:15;;;;;;;;;;;;;;;;;;1039990;28;4149;-53
2023/06/01 01:15:51;;;;;;;;;;;;;;;;;;1038749;28;4052;-53
2023/06/01 01:16:52;;;;;;;;;;;;;;;;;;1038420;28;1609;-57
2023/06/01 01:17:32;;;;;;;;;;;;;;;;;;1026588;28;3985;-56
2023/06/01 01:18:04;;;;;;;;;;;;;;;;;;1041047;28;4025;-48
2023/06/01 01:18:54;;;;;;;;;;;;;;;;;;1043411;28;1697;-52
2023/06/01 01:19:50;;;;;;;;;;;;;;;;;;1040880;28;3944;-51
2023/06/01 01:20:22;;;;;;;;;;;;;;;;;;1037741;28;6112;-50
2023/06/01 01:20:57;;;;;;;;;;;;;;;;;;1040556;28;4106;-47
2023/06/01 01:21:32;;;;;;;;;;;;;;;;;;1042460;28;2294;-48
2023/06/01 01:22:21;;;;;;;;;;;;;;;;;;1042661;28;3793;-54
2023/06/01 01:23:04;;;;;;;;;;;;;;;;;;1039699;28;4508;-55
2023/06/01 01:23:38;;;;;;;;;;;;;;;;;;1038485;28;1691;-51
2023/06/01 01:24:23;;;;;;;;;;;;;;;;;;1043131;28;4302;-59
2023/06/01 01:24:56;;;;;;;;;;;;;;;;;;1041830;28;3806;-53
2023/06/01 01:25:27;;;;;;;;;;;;;;;;;;1043153;28;1707;-57
2023/06/01 01:26:07;;;;;;;;;;;;;;;;;;1040013;28;3845;-50
2023/06/01 01:26:37;;;;;;;;;;;;;;;;;;1042386;28;3034;-53
2023/06/01 01:27:17;;;;;;;;;;;;;;;;;;1042127;28;3803;-52
2023/06/01 01:28:08;;;;;;;;;;;;;;;;;;1041855;28;4042;-55
2023/06/01 01:28:41;;;;;;;;;;;;;;;;;;1038978;28;2220;-50
2023/06/01 01:29:13;;;;;;;;;;;;;;;;;;1037229;28;3949;-52
2023/06/01 01:29:45;;;;;;;;;;;;;;;;;;1038448;28;4065;-53
2023/06/01 01:30:18;;;;;;;;;;;;;;;;;;1040777;28;3009;-53
2023/06/01 01:30:50;;;;;;;;;;;;;;;;;;1041123;28;4006;-53
2023/06/01 01:31:22;;;;;;;;;;;;;;;;;;1041522;28;3007;-51
2023/06/01 01:31:54;;;;;;;;;;;;;;;;;;1044670;28;4061;-54
2023/06/01 01:32:26;;;;;;;;;;;;;;;;;;1042184;28;2029;-56
2023/06/01 01:32:57;;;;;;;;;;;;;;;;;;1044197;28;4023;-57
2023/06/01 01:33:28;;;;;;;;;;;;;;;;;;1045479;28;3244;-52
2023/06/01 01:33:59;;;;;;;;;;;;;;;;;;1043540;28;3935;-59
2023/06/01 01:34:30;;;;;;;;;;;;;;;;;;1041849;28;2935;-51
2023/06/01 01:35:01;;;;;;;;;;;;;;;;;;1040782;28;3854;-55
2023/06/01 01:35:32;;;;;;;;;;;;;;;;;;1039751;28;1671;-50
2023/06/01 01:36:03;;;;;;;;;;;;;;;;;;1042707;28;4212;-53
2023/06/01 01:36:35;;;;;;;;;;;;;;;;;;1043215;28;3030;-56
2023/06/01 01:37:05;;;;;;;;;;;;;;;;;;1042862;28;4222;-54
2023/06/01 01:37:36;;;;;;;;;;;;;;;;;;1047992;28;1688;-53
2023/06/01 01:38:06;;;;;;;;;;;;;;;;;;1046567;28;3863;-53
2023/06/01 01:38:36;;;;;;;;;;;;;;;;;;1045791;28;2867;-53
2023/06/01 01:39:07;;;;;;;;;;;;;;;;;;1046497;28;3843;-54
2023/06/01 01:39:37;;;;;;;;;;;;;;;;;;1043340;28;3005;-54
2023/06/01 01:40:08;;;;;;;;;;;;;;;;;;1043016;28;3949;-57
2023/06/01 01:40:38;;;;;;;;;;;;;;;;;;1043684;28;2918;-50
2023/06/01 01:41:08;;;;;;;;;;;;;;;;;;1043156;28;4084;-51
2023/06/01 01:41:38;;;;;;;;;;;;;;;;;;1044388;28;1346;-52
2023/06/01 01:42:09;;;;;;;;;;;;;;;;;;1043759;28;3818;-56
2023/06/01 01:42:39;;;;;;;;;;;;;;;;;;1042682;28;3968;-52
2023/06/01 01:43:10;;;;;;;;;;;;;;;;;;1043148;28;3352;-51
2023/06/01 01:43:41;;;;;;;;;;;;;;;;;;1043200;28;3808;-53
2023/06/01 01:44:12;;;;;;;;;;;;;;;;;;1044127;28;2964;-55
2023/06/01 01:44:43;;;;;;;;;;;;;;;;;;1042864;28;3979;-54
2023/06/01 01:45:13;;;;;;;;;;;;;;;;;;1043148;28;2237;-52
2023/06/01 01:45:45;;;;;;;;;;;;;;;;;;1042421;28;3873;-52
2023/06/01 01:46:19;;;;;;;;;;;;;;;;;;1044181;28;2947;-52
2023/06/01 01:46:57;;;;;;;;;;;;;;;;;;1041284;28;4238;-50
2023/06/01 01:47:31;;;;;;;;;;;;;;;;;;1043478;28;2895;-47
2023/06/01 01:48:10;;;;;;;;;;;;;;;;;;1042269;28;3846;-57
2023/06/01 01:48:47;;;;;;;;;;;;;;;;;;1044053;28;4059;-53
2023/06/01 01:49:25;;;;;;;;;;;;;;;;;;1043194;28;1703;-52
2023/06/01 01:49:57;;;;;;;;;;;;;;;;;;1043727;28;4077;-52
2023/06/01 01:50:32;;;;;;;;;;;;;;;;;;1043494;28;1986;-55
2023/06/01 01:51:05;;;;;;;;;;;;;;;;;;1042659;28;3852;-53
2023/06/01 01:51:55;;;;;;;;;;;;;;;;;;1043214;28;1766;-50
2023/06/01 01:52:29;;;;;;;;;;;;;;;;;;1043404;28;3923;-53
2023/06/01 01:53:00;;;;;;;;;;;;;;;;;;1042910;28;4247;-54
2023/06/01 01:53:30;;;;;;;;;;;;;;;;;;1043358;28;3232;-54
2023/06/01 01:54:03;;;;;;;;;;;;;;;;;;1043439;28;4197;-50
2023/06/01 01:54:36;;;;;;;;;;;;;;;;;;1043335;28;3356;-54
2023/06/01 01:55:07;;;;;;;;;;;;;;;;;;1042606;28;3847;-57
2023/06/01 01:55:38;;;;;;;;;;;;;;;;;;1043240;28;1852;-52
2023/06/01 01:56:08;;;;;;;;;;;;;;;;;;1043372;28;3890;-53
2023/06/01 01:56:39;;;;;;;;;;;;;;;;;;1042546;28;3880;-51
2023/06/01 01:57:11;;;;;;;;;;;;;;;;;;1041733;28;2913;-51
2023/06/01 01:57:42;;;;;;;;;;;;;;;;;;1043995;28;4037;-52
2023/06/01 01:58:13;;;;;;;;;;;;;;;;;;1043669;28;1820;-54
2023/06/01 01:58:43;;;;;;;;;;;;;;;;;;1042569;28;4638;-55
2023/06/01 01:59:14;;;;;;;;;;;;;;;;;;1040707;28;3164;-52
2023/06/01 01:59:45;;;;;;;;;;;;;;;;;;1042834;28;3789;-55
2023/06/01 02:00:17;;;;;;;;;;;;;;;;;;1042655;28;2541;-54
2023/06/01 02:00:48;;;;;;;;;;;;;;;;;;1043584;28;3872;-49
2023/06/01 02:01:19;;;;;;;;;;;;;;;;;;1042305;28;2843;-55
2023/06/01 02:01:50;;;;;;;;;;;;;;;;;;1042385;28;4471;-53
2023/06/01 02:02:20;;;;;;;;;;;;;;;;;;1042028;28;2197;-55
2023/06/01 02:02:50;;;;;;;;;;;;;;;;;;1042836;28;3983;-53
2023/06/01 02:03:21;;;;;;;;;;;;;;;;;;1041622;28;2835;-50
2023/06/01 02:04:01;;;;;;;;;;;;;;;;;;1042798;28;4578;-58
2023/06/01 02:04:31;;;;;;;;;;;;;;;;;;1042611;28;3042;-57
2023/06/01 02:05:01;;;;;;;;;;;;;;;;;;1043567;28;3760;-54
2023/06/01 02:05:32;;;;;;;;;;;;;;;;;;1043223;28;1819;-51
2023/06/01 02:06:02;;;;;;;;;;;;;;;;;;1043434;28;3738;-51
2023/06/01 02:06:32;;;;;;;;;;;;;;;;;;1044172;28;1654;-53
2023/06/01 02:07:03;;;;;;;;;;;;;;;;;;1041448;28;3864;-48
2023/06/01 02:07:34;;;;;;;;;;;;;;;;;;1043545;28;2153;-49
2023/06/01 02:08:05;;;;;;;;;;;;;;;;;;1042819;28;3748;-48
2023/06/01 02:08:35;;;;;;;;;;;;;;;;;;1044176;28;1462;-50
2023/06/01 02:09:07;;;;;;;;;;;;;;;;;;1040984;28;4107;-58
2023/06/01 02:09:38;;;;;;;;;;;;;;;;;;1043432;28;1906;-51
2023/06/01 02:10:08;;;;;;;;;;;;;;;;;;1042754;28;3822;-59
2023/06/01 02:10:40;;;;;;;;;;;;;;;;;;1043010;28;2931;-53
2023/06/01 02:11:10;;;;;;;;;;;;;;;;;;1042858;28;3802;-53
2023/06/01 02:11:41;;;;;;;;;;;;;;;;;;1042895;28;3990;-54
2023/06/01 02:12:11;;;;;;;;;;;;;;;;;;1043702;28;1796;-50
2023/06/01 02:12:41;;;;;;;;;;;;;;;;;;1043065;28;5448;-54
2023/06/01 02:13:12;;;;;;;;;;;;;;;;;;1043196;28;3200;-51
2023/06/01 02:13:42;;;;;;;;;;;;;;;;;;1041988;28;4059;-53
2023/06/01 02:14:12;;;;;;;;;;;;;;;;;;1043141;28;3160;-58
2023/06/01 02:14:43;;;;;;;;;;;;;;;;;;1042349;28;4417;-56
2023/06/01 02:15:13;;;;;;;;;;;;;;;;;;1043275;28;2473;-56
2023/06/01 02:15:43;;;;;;;;;;;;;;;;;;1043543;28;4075;-53
2023/06/01 02:16:15;;;;;;;;;;;;;;;;;;1043619;28;1617;-49
2023/06/01 02:16:46;;;;;;;;;;;;;;;;;;1042072;28;4086;-50
2023/06/01 02:17:16;;;;;;;;;;;;;;;;;;1043776;28;1611;-54
2023/06/01 02:17:46;;;;;;;;;;;;;;;;;;1043425;28;3979;-54
2023/06/01 02:18:17;;;;;;;;;;;;;;;;;;1043284;28;1784;-54
2023/06/01 02:18:47;;;;;;;;;;;;;;;;;;1043687;28;3954;-56
2023/06/01 02:19:18;;;;;;;;;;;;;;;;;;1042774;28;2816;-59
2023/06/01 02:19:48;;;;;;;;;;;;;;;;;;1043488;28;4393;-58
2023/06/01 02:20:18;;;;;;;;;;;;;;;;;;1042988;28;2010;-53
2023/06/01 02:20:49;;;;;;;;;;;;;;;;;;1043415;28;4026;-56
2023/06/01 02:21:19;;;;;;;;;;;;;;;;;;1043498;28;2001;-48
2023/06/01 02:21:50;;;;;;;;;;;;;;;;;;1043075;28;5067;-50
2023/06/01 02:22:20;;;;;;;;;;;;;;;;;;1042947;28;1856;-54
2023/06/01 02:22:50;;;;;;;;;;;;;;;;;;1042091;28;3903;-53
2023/06/01 02:23:20;;;;;;;;;;;;;;;;;;1043091;28;2897;-52
2023/06/01 02:23:51;;;;;;;;;;;;;;;;;;1043757;28;4019;-50
2023/06/01 02:24:21;;;;;;;;;;;;;;;;;;1042990;28;1688;-55
2023/06/01 02:24:51;;;;;;;;;;;;;;;;;;1043318;28;3770;-49
2023/06/01 02:25:22;;;;;;;;;;;;;;;;;;1043292;28;3267;-54
2023/06/01 02:25:52;;;;;;;;;;;;;;;;;;1043779;28;4049;-54
2023/06/01 02:26:22;;;;;;;;;;;;;;;;;;1043750;28;1683;-52
2023/06/01 02:26:53;;;;;;;;;;;;;;;;;;1042719;28;4229;-49
2023/06/01 02:27:23;;;;;;;;;;;;;;;;;;1043400;28;2852;-52
2023/06/01 02:27:54;;;;;;;;;;;;;;;;;;1041118;28;4098;-56
2023/06/01 02:28:24;;;;;;;;;;;;;;;;;;1043813;28;2911;-53
2023/06/01 02:28:54;;;;;;;;;;;;;;;;;;1042719;28;3841;-53
2023/06/01 02:29:25;;;;;;;;;;;;;;;;;;1042299;28;3489;-51
2023/06/01 02:29:55;;;;;;;;;;;;;;;;;;1042275;28;4023;-51
2023/06/01 02:30:26;;;;;;;;;;;;;;;;;;1044056;28;1575;-52
2023/06/01 02:30:56;;;;;;;;;;;;;;;;;;1043570;28;4006;-56
2023/06/01 02:31:26;;;;;;;;;;;;;;;;;;1040812;28;3506;-58
2023/06/01 02:31:56;;;;;;;;;;;;;;;;;;1042791;28;3916;-49
2023/06/01 02:32:27;;;;;;;;;;;;;;;;;;1043001;28;1897;-54
2023/06/01 02:32:58;;;;;;;;;;;;;;;;;;1043283;28;3786;-54
2023/06/01 02:33:28;;;;;;;;;;;;;;;;;;1043174;28;3516;-51
2023/06/01 02:34:01;;;;;;;;;;;;;;;;;;1042795;28;4350;-53
2023/06/01 02:34:32;;;;;;;;;;;;;;;;;;1042207;28;2966;-49
2023/06/01 02:35:02;;;;;;;;;;;;;;;;;;1043513;28;3829;-52
2023/06/01 02:35:32;;;;;;;;;;;;;;;;;;1047379;28;2911;-50
2023/06/01 02:36:03;;;;;;;;;;;;;;;;;;1043623;28;4057;-53
2023/06/01 02:36:34;;;;;;;;;;;;;;;;;;1042484;28;2461;-53
2023/06/01 02:37:04;;;;;;;;;;;;;;;;;;1041679;28;3926;-46
2023/06/01 02:37:35;;;;;;;;;;;;;;;;;;1042699;28;1441;-51
2023/06/01 02:38:05;;;;;;;;;;;;;;;;;;1043344;28;4026;-55
2023/06/01 02:38:35;;;;;;;;;;;;;;;;;;1043132;28;1929;-52
2023/06/01 02:39:06;;;;;;;;;;;;;;;;;;1043213;28;3769;-49
2023/06/01 02:39:36;;;;;;;;;;;;;;;;;;1043978;28;1639;-59
2023/06/01 02:40:11;;;;;;;;;;;;;;;;;;1042277;28;4481;-54
2023/06/01 02:40:41;;;;;;;;;;;;;;;;;;1042753;28;3787;-51
2023/06/01 02:41:11;;;;;;;;;;;;;;;;;;1043952;28;1722;-60
2023/06/01 02:41:42;;;;;;;;;;;;;;;;;;1043259;28;4115;-55
2023/06/01 02:42:12;;;;;;;;;;;;;;;;;;1043268;28;1873;-51
2023/06/01 02:42:42;;;;;;;;;;;;;;;;;;1043098;28;3770;-48
2023/06/01 02:43:12;;;;;;;;;;;;;;;;;;1043514;28;1757;-52
2023/06/01 02:43:43;;;;;;;;;;;;;;;;;;1043328;28;3766;-53
2023/06/01 02:44:13;;;;;;;;;;;;;;;;;;1043183;28;1865;-52
2023/06/01 02:44:43;;;;;;;;;;;;;;;;;;1043406;28;4023;-57
2023/06/01 02:45:14;;;;;;;;;;;;;;;;;;1042819;28;1787;-54
2023/06/01 02:45:44;;;;;;;;;;;;;;;;;;1043265;28;3964;-53
2023/06/01 02:46:15;;;;;;;;;;;;;;;;;;1043379;28;2596;-52
2023/06/01 02:46:45;;;;;;;;;;;;;;;;;;1042917;28;4096;-53
2023/06/01 02:47:16;;;;;;;;;;;;;;;;;;1043759;28;1858;-55
2023/06/01 02:47:46;;;;;;;;;;;;;;;;;;1042180;28;4421;-57
2023/06/01 02:48:17;;;;;;;;;;;;;;;;;;1043638;28;2816;-54
2023/06/01 02:48:47;;;;;;;;;;;;;;;;;;1043120;28;4061;-53
2023/06/01 02:49:17;;;;;;;;;;;;;;;;;;1043381;28;1727;-58
2023/06/01 02:49:48;;;;;;;;;;;;;;;;;;1042268;28;4523;-53
2023/06/01 02:50:18;;;;;;;;;;;;;;;;;;1043299;28;3214;-55
2023/06/01 02:50:48;;;;;;;;;;;;;;;;;;1042553;28;3936;-57
2023/06/01 02:51:19;;;;;;;;;;;;;;;;;;1043452;28;1693;-53
2023/06/01 02:51:49;;;;;;;;;;;;;;;;;;1041874;28;3969;-51
2023/06/01 02:52:19;;;;;;;;;;;;;;;;;;1043846;28;1826;-54
2023/06/01 02:52:50;;;;;;;;;;;;;;;;;;1043339;28;4365;-52
2023/06/01 02:53:21;;;;;;;;;;;;;;;;;;1043012;28;1594;-54
2023/06/01 02:53:51;;;;;;;;;;;;;;;;;;1043146;28;3904;-49
2023/06/01 02:54:21;;;;;;;;;;;;;;;;;;1043404;28;1932;-53
2023/06/01 02:54:51;;;;;;;;;;;;;;;;;;1042009;28;4032;-53
2023/06/01 02:55:22;;;;;;;;;;;;;;;;;;1043458;28;1907;-54
2023/06/01 02:55:52;;;;;;;;;;;;;;;;;;1043140;28;4084;-49
2023/06/01 02:56:23;;;;;;;;;;;;;;;;;;1043140;28;1950;-55
2023/06/01 02:56:53;;;;;;;;;;;;;;;;;;1043383;28;3778;-53
2023/06/01 02:57:23;;;;;;;;;;;;;;;;;;1043312;28;3016;-59
2023/06/01 02:57:53;;;;;;;;;;;;;;;;;;1043059;28;3872;-54
2023/06/01 02:58:24;;;;;;;;;;;;;;;;;;1042931;28;2818;-49
2023/06/01 02:58:54;;;;;;;;;;;;;;;;;;1042500;28;4985;-54
2023/06/01 02:59:24;;;;;;;;;;;;;;;;;;1043191;28;1950;-53
2023/06/01 02:59:54;;;;;;;;;;;;;;;;;;1043241;28;4394;-52
2023/06/01 03:00:27;;;;;;;;;;;;;;;;;;1041880;28;3080;-49
2023/06/01 03:00:57;;;;;;;;;;;;;;;;;;1042598;28;4070;-51
2023/06/01 03:01:28;;;;;;;;;;;;;;;;;;1043184;28;1706;-57
2023/06/01 03:01:58;;;;;;;;;;;;;;;;;;1043081;28;4124;-55
2023/06/01 03:02:28;;;;;;;;;;;;;;;;;;1043389;28;1700;-50
2023/06/01 03:02:59;;;;;;;;;;;;;;;;;;1041840;28;4027;-55
2023/06/01 03:03:29;;;;;;;;;;;;;;;;;;1043283;28;1760;-55
2023/06/01 03:04:03;;;;;;;;;;;;;;;;;;1042868;28;4383;-55
2023/06/01 03:04:33;;;;;;;;;;;;;;;;;;1042590;28;2813;-51
2023/06/01 03:05:06;;;;;;;;;;;;;;;;;;1043466;28;3833;-53
2023/06/01 03:05:36;;;;;;;;;;;;;;;;;;1043234;28;2916;-53
2023/06/01 03:06:06;;;;;;;;;;;;;;;;;;1042652;28;3714;-51
2023/06/01 03:06:37;;;;;;;;;;;;;;;;;;1043534;28;3197;-50
2023/06/01 03:07:07;;;;;;;;;;;;;;;;;;1043688;28;3942;-51
2023/06/01 03:07:38;;;;;;;;;;;;;;;;;;1043440;28;2972;-53
2023/06/01 03:08:09;;;;;;;;;;;;;;;;;;1042142;28;3764;-56
2023/06/01 03:08:39;;;;;;;;;;;;;;;;;;1042001;28;4136;-54
2023/06/01 03:09:12;;;;;;;;;;;;;;;;;;1043057;28;1849;-55
2023/06/01 03:09:43;;;;;;;;;;;;;;;;;;1044054;28;4032;-57
2023/06/01 03:10:13;;;;;;;;;;;;;;;;;;1042813;28;1908;-50
2023/06/01 03:10:43;;;;;;;;;;;;;;;;;;1043331;28;4066;-47
2023/06/01 03:11:14;;;;;;;;;;;;;;;;;;1043315;28;1796;-51
2023/06/01 03:11:44;;;;;;;;;;;;;;;;;;1042789;28;3778;-51
2023/06/01 03:12:14;;;;;;;;;;;;;;;;;;1043382;28;1925;-48
2023/06/01 03:12:45;;;;;;;;;;;;;;;;;;1041794;28;3790;-55
2023/06/01 03:13:15;;;;;;;;;;;;;;;;;;1043338;28;2705;-50
2023/06/01 03:13:45;;;;;;;;;;;;;;;;;;1042275;28;4410;-50
2023/06/01 03:14:16;;;;;;;;;;;;;;;;;;1042554;28;2844;-59
2023/06/01 03:14:46;;;;;;;;;;;;;;;;;;1041790;28;4067;-57
2023/06/01 03:15:16;;;;;;;;;;;;;;;;;;1042706;28;2976;-57
2023/06/01 03:15:47;;;;;;;;;;;;;;;;;;1042504;28;3983;-48
2023/06/01 03:16:17;;;;;;;;;;;;;;;;;;1043476;28;3399;-54
2023/06/01 03:16:47;;;;;;;;;;;;;;;;;;1041961;28;4084;-52
2023/06/01 03:17:17;;;;;;;;;;;;;;;;;;1041849;28;2933;-54
2023/06/01 03:17:48;;;;;;;;;;;;;;;;;;1041547;28;4049;-56
2023/06/01 03:18:18;;;;;;;;;;;;;;;;;;1042695;28;3057;-53
2023/06/01 03:18:48;;;;;;;;;;;;;;;;;;1042151;28;4066;-53
2023/06/01 03:19:19;;;;;;;;;;;;;;;;;;1043620;28;1624;-55
2023/06/01 03:19:49;;;;;;;;;;;;;;;;;;1042324;28;4073;-56
2023/06/01 03:20:19;;;;;;;;;;;;;;;;;;1043894;28;2622;-51
2023/06/01 03:20:50;;;;;;;;;;;;;;;;;;1043372;28;4373;-55
2023/06/01 03:21:21;;;;;;;;;;;;;;;;;;1042944;28;1910;-50
2023/06/01 03:21:51;;;;;;;;;;;;;;;;;;1042762;28;4057;-51
2023/06/01 03:22:21;;;;;;;;;;;;;;;;;;1043312;28;3384;-53
2023/06/01 03:22:51;;;;;;;;;;;;;;;;;;1043248;28;3805;-51
2023/06/01 03:23:22;;;;;;;;;;;;;;;;;;1042505;28;1864;-54
2023/06/01 03:23:52;;;;;;;;;;;;;;;;;;1043770;28;4380;-57
2023/06/01 03:24:27;;;;;;;;;;;;;;;;;;1043234;28;1668;-55
2023/06/01 03:24:57;;;;;;;;;;;;;;;;;;1042958;28;4171;-55
2023/06/01 03:25:28;;;;;;;;;;;;;;;;;;1043418;28;1868;-55
2023/06/01 03:25:58;;;;;;;;;;;;;;;;;;1043037;28;4373;-53
2023/06/01 03:26:29;;;;;;;;;;;;;;;;;;1041731;28;2780;-57
2023/06/01 03:27:00;;;;;;;;;;;;;;;;;;1042767;28;4069;-53
2023/06/01 03:27:31;;;;;;;;;;;;;;;;;;1042533;28;3398;-47
2023/06/01 03:28:01;;;;;;;;;;;;;;;;;;1043670;28;4026;-55
2023/06/01 03:28:31;;;;;;;;;;;;;;;;;;1042778;28;1775;-53
2023/06/01 03:29:01;;;;;;;;;;;;;;;;;;1036987;28;4149;-57
2023/06/01 03:29:32;;;;;;;;;;;;;;;;;;1039104;28;1855;-54
2023/06/01 03:30:03;;;;;;;;;;;;;;;;;;1040660;28;3741;-56
2023/06/01 03:30:34;;;;;;;;;;;;;;;;;;1042854;28;2867;-52
2023/06/01 03:31:04;;;;;;;;;;;;;;;;;;1043427;28;3955;-51
2023/06/01 03:31:34;;;;;;;;;;;;;;;;;;1042195;28;1348;-51
2023/06/01 03:32:05;;;;;;;;;;;;;;;;;;1042880;28;3921;-46
2023/06/01 03:32:39;;;;;;;;;;;;;;;;;;1043009;28;1680;-50
2023/06/01 03:33:09;;;;;;;;;;;;;;;;;;1041963;28;3851;-52
2023/06/01 03:33:40;;;;;;;;;;;;;;;;;;1041850;28;3873;-51
2023/06/01 03:34:10;;;;;;;;;;;;;;;;;;1043300;28;1749;-57
2023/06/01 03:34:41;;;;;;;;;;;;;;;;;;1042718;28;4106;-55
2023/06/01 03:35:12;;;;;;;;;;;;;;;;;;1043276;28;1800;-57
2023/06/01 03:35:44;;;;;;;;;;;;;;;;;;1043021;28;4033;-48
2023/06/01 03:36:14;;;;;;;;;;;;;;;;;;1042879;28;2855;-58
2023/06/01 03:36:47;;;;;;;;;;;;;;;;;;1043116;28;3948;-57
2023/06/01 03:37:18;;;;;;;;;;;;;;;;;;1042776;28;2807;-57
2023/06/01 03:37:48;;;;;;;;;;;;;;;;;;1043245;28;3811;-53
2023/06/01 03:38:18;;;;;;;;;;;;;;;;;;1044211;28;1687;-51
2023/06/01 03:38:49;;;;;;;;;;;;;;;;;;1042721;28;4032;-56
2023/06/01 03:39:19;;;;;;;;;;;;;;;;;;1042288;28;2567;-53
2023/06/01 03:39:49;;;;;;;;;;;;;;;;;;1043373;28;3956;-55
2023/06/01 03:40:20;;;;;;;;;;;;;;;;;;1042462;28;2736;-52